VEAT/IXA METAR and TAF weather

Enter ICAO airport designator
Station Type Date Time Source
VEAT METAR 2023/03/22 10:00 UTC NOAA

VEAT 221000Z 00000KT 4000 TS SCT020 FEW030CB SCT100 28/20 Q1007 TEMPO 3000 -TSRA


Station Type Date Time Source
VEAT Decoded METAR 2023/03/22 10:00 UTC NOAA

Agartala, India (VEAT) 23-53N 091-15E 16M
Mar 22, 2023 - 06:00 AM EDT / 2023.03.22 1000 UTC
Wind: Calm:0
Visibility: 2 mile(s):0
Sky conditions: partly cloudy
Weather: thunder; Cumulonimbus clouds observed
Temperature: 82 F (28 C)
Dew Point: 68 F (20 C)
Relative Humidity: 61%
Pressure (altimeter): 29.74 in. Hg (1007 hPa)
ob: VEAT 221000Z 00000KT 4000 TS SCT020 FEW030CB SCT100 28/20 Q1007 TEMPO 3000 -TSRA
cycle: 10

Station Type Date Time Source
VEAT TAF 2023/03/22 06:00 UTC NOAA

TAF VEAT 220500Z 2206/2312 32003KT 5000 HZ SCT020 SCT100
TEMPO 2209/2212 2500 -RA SCT018 FEW030CB BKN100
BECMG 2212/2214 00000KT 2200 HZ FEW018 SCT100
BECMG 2222/2224 1400 BR
BECMG 2302/2305 2500 BR
BECMG 2306/2309 3500 HZ SCT020 =

Example: see airport list